sensor_id;sensor_type;location;lat;lon;timestamp;temperature;humidity
33827;DHT22;20128;45.582;5.298;2023-05-28T00:02:10;23.60;63.30
33827;DHT22;20128;45.582;5.298;2023-05-28T00:04:35;23.60;63.20
33827;DHT22;20128;45.582;5.298;2023-05-28T00:07:01;23.50;63.50
33827;DHT22;20128;45.582;5.298;2023-05-28T00:09:28;23.50;63.50
33827;DHT22;20128;45.582;5.298;2023-05-28T00:11:53;23.20;63.80
33827;DHT22;20128;45.582;5.298;2023-05-28T00:14:19;23.10;64.40
33827;DHT22;20128;45.582;5.298;2023-05-28T00:16:45;23.20;64.70
33827;DHT22;20128;45.582;5.298;2023-05-28T00:19:11;23.30;64.70
33827;DHT22;20128;45.582;5.298;2023-05-28T00:21:37;23.30;64.60
33827;DHT22;20128;45.582;5.298;2023-05-28T00:24:03;23.40;64.40
33827;DHT22;20128;45.582;5.298;2023-05-28T00:26:29;23.40;64.20
33827;DHT22;20128;45.582;5.298;2023-05-28T00:28:55;23.40;63.90
33827;DHT22;20128;45.582;5.298;2023-05-28T00:31:21;23.40;64.00
33827;DHT22;20128;45.582;5.298;2023-05-28T00:33:46;23.40;64.00
33827;DHT22;20128;45.582;5.298;2023-05-28T00:36:12;23.40;63.90
33827;DHT22;20128;45.582;5.298;2023-05-28T00:38:38;23.40;64.10
33827;DHT22;20128;45.582;5.298;2023-05-28T00:41:04;23.40;63.90
33827;DHT22;20128;45.582;5.298;2023-05-28T00:43:29;23.40;63.80
33827;DHT22;20128;45.582;5.298;2023-05-28T00:45:58;23.40;63.80
33827;DHT22;20128;45.582;5.298;2023-05-28T00:48:24;23.30;63.70
33827;DHT22;20128;45.582;5.298;2023-05-28T00:50:51;23.20;63.50
33827;DHT22;20128;45.582;5.298;2023-05-28T00:53:16;23.10;63.50
33827;DHT22;20128;45.582;5.298;2023-05-28T00:55:43;22.90;64.10
33827;DHT22;20128;45.582;5.298;2023-05-28T00:58:09;22.60;64.40
33827;DHT22;20128;45.582;5.298;2023-05-28T01:00:36;22.30;65.00
33827;DHT22;20128;45.582;5.298;2023-05-28T01:03:03;22.10;65.70
33827;DHT22;20128;45.582;5.298;2023-05-28T01:05:29;21.90;66.10
33827;DHT22;20128;45.582;5.298;2023-05-28T01:08:03;22.00;66.40
33827;DHT22;20128;45.582;5.298;2023-05-28T01:10:31;22.20;66.30
33827;DHT22;20128;45.582;5.298;2023-05-28T01:12:57;22.30;66.10
33827;DHT22;20128;45.582;5.298;2023-05-28T01:15:24;22.40;65.90
33827;DHT22;20128;45.582;5.298;2023-05-28T01:17:55;22.50;65.30
33827;DHT22;20128;45.582;5.298;2023-05-28T01:20:23;22.50;65.30
33827;DHT22;20128;45.582;5.298;2023-05-28T01:22:54;22.60;65.30
33827;DHT22;20128;45.582;5.298;2023-05-28T01:25:22;22.50;65.10
33827;DHT22;20128;45.582;5.298;2023-05-28T01:27:48;22.50;65.40
33827;DHT22;20128;45.582;5.298;2023-05-28T01:30:13;22.50;65.60
33827;DHT22;20128;45.582;5.298;2023-05-28T01:32:39;22.50;65.10
33827;DHT22;20128;45.582;5.298;2023-05-28T01:35:06;22.60;64.90
33827;DHT22;20128;45.582;5.298;2023-05-28T01:37:36;22.50;64.90
33827;DHT22;20128;45.582;5.298;2023-05-28T01:40:03;22.50;65.20
33827;DHT22;20128;45.582;5.298;2023-05-28T01:42:34;22.50;65.10
33827;DHT22;20128;45.582;5.298;2023-05-28T01:45:01;22.50;65.60
33827;DHT22;20128;45.582;5.298;2023-05-28T01:47:27;22.40;64.90
33827;DHT22;20128;45.582;5.298;2023-05-28T01:49:53;22.40;65.10
33827;DHT22;20128;45.582;5.298;2023-05-28T01:52:19;22.30;65.00
33827;DHT22;20128;45.582;5.298;2023-05-28T01:54:45;22.20;65.10
33827;DHT22;20128;45.582;5.298;2023-05-28T01:57:11;22.10;65.50
33827;DHT22;20128;45.582;5.298;2023-05-28T01:59:37;22.10;65.60
33827;DHT22;20128;45.582;5.298;2023-05-28T02:02:03;21.90;65.80
33827;DHT22;20128;45.582;5.298;2023-05-28T02:04:29;21.70;66.70
33827;DHT22;20128;45.582;5.298;2023-05-28T02:06:54;21.60;67.00
33827;DHT22;20128;45.582;5.298;2023-05-28T02:09:21;21.50;67.60
33827;DHT22;20128;45.582;5.298;2023-05-28T02:11:46;21.60;67.80
33827;DHT22;20128;45.582;5.298;2023-05-28T02:14:12;21.70;67.70
33827;DHT22;20128;45.582;5.298;2023-05-28T02:16:46;21.80;67.30
33827;DHT22;20128;45.582;5.298;2023-05-28T02:19:18;21.90;67.00
33827;DHT22;20128;45.582;5.298;2023-05-28T02:21:44;21.90;66.60
33827;DHT22;20128;45.582;5.298;2023-05-28T02:24:10;21.90;66.30
33827;DHT22;20128;45.582;5.298;2023-05-28T02:26:35;21.40;67.10
33827;DHT22;20128;45.582;5.298;2023-05-28T02:29:02;21.40;67.60
33827;DHT22;20128;45.582;5.298;2023-05-28T02:31:27;21.50;67.50
33827;DHT22;20128;45.582;5.298;2023-05-28T02:33:53;21.50;67.50
33827;DHT22;20128;45.582;5.298;2023-05-28T02:36:18;21.60;67.30
33827;DHT22;20128;45.582;5.298;2023-05-28T02:38:46;21.60;67.40
33827;DHT22;20128;45.582;5.298;2023-05-28T02:41:12;21.60;67.20
33827;DHT22;20128;45.582;5.298;2023-05-28T02:43:37;21.60;67.30
33827;DHT22;20128;45.582;5.298;2023-05-28T02:46:03;21.70;67.10
33827;DHT22;20128;45.582;5.298;2023-05-28T02:48:29;21.70;66.80
33827;DHT22;20128;45.582;5.298;2023-05-28T02:50:56;21.70;66.90
33827;DHT22;20128;45.582;5.298;2023-05-28T02:53:22;21.60;66.60
33827;DHT22;20128;45.582;5.298;2023-05-28T02:55:48;21.60;66.70
33827;DHT22;20128;45.582;5.298;2023-05-28T02:58:14;21.60;66.90
33827;DHT22;20128;45.582;5.298;2023-05-28T03:00:40;21.60;66.90
33827;DHT22;20128;45.582;5.298;2023-05-28T03:03:06;21.50;66.90
33827;DHT22;20128;45.582;5.298;2023-05-28T03:05:32;21.50;66.90
33827;DHT22;20128;45.582;5.298;2023-05-28T03:08:00;21.50;66.70
33827;DHT22;20128;45.582;5.298;2023-05-28T03:10:25;21.40;67.10
33827;DHT22;20128;45.582;5.298;2023-05-28T03:12:51;21.30;67.20
33827;DHT22;20128;45.582;5.298;2023-05-28T03:15:17;21.40;67.60
33827;DHT22;20128;45.582;5.298;2023-05-28T03:17:42;21.40;67.50
33827;DHT22;20128;45.582;5.298;2023-05-28T03:20:08;21.30;67.30
33827;DHT22;20128;45.582;5.298;2023-05-28T03:22:39;21.20;67.20
33827;DHT22;20128;45.582;5.298;2023-05-28T03:25:05;21.20;67.60
33827;DHT22;20128;45.582;5.298;2023-05-28T03:27:32;21.10;67.60
33827;DHT22;20128;45.582;5.298;2023-05-28T03:29:57;21.00;68.10
33827;DHT22;20128;45.582;5.298;2023-05-28T03:32:23;21.00;68.10
33827;DHT22;20128;45.582;5.298;2023-05-28T03:34:49;21.00;68.30
33827;DHT22;20128;45.582;5.298;2023-05-28T03:37:14;21.00;68.50
33827;DHT22;20128;45.582;5.298;2023-05-28T03:39:40;21.00;68.70
33827;DHT22;20128;45.582;5.298;2023-05-28T03:42:06;21.10;68.40
33827;DHT22;20128;45.582;5.298;2023-05-28T03:44:33;21.20;68.30
33827;DHT22;20128;45.582;5.298;2023-05-28T03:46:59;21.20;68.30
33827;DHT22;20128;45.582;5.298;2023-05-28T03:49:24;21.30;68.00
33827;DHT22;20128;45.582;5.298;2023-05-28T03:51:50;21.40;67.70
33827;DHT22;20128;45.582;5.298;2023-05-28T03:54:16;21.40;67.60
33827;DHT22;20128;45.582;5.298;2023-05-28T03:56:41;21.40;67.50
33827;DHT22;20128;45.582;5.298;2023-05-28T03:59:07;21.40;67.40
33827;DHT22;20128;45.582;5.298;2023-05-28T04:01:33;21.50;67.20
33827;DHT22;20128;45.582;5.298;2023-05-28T04:04:01;21.40;67.30
33827;DHT22;20128;45.582;5.298;2023-05-28T04:06:27;21.30;67.50
33827;DHT22;20128;45.582;5.298;2023-05-28T04:08:52;21.40;67.60
33827;DHT22;20128;45.582;5.298;2023-05-28T04:11:18;21.40;67.50
33827;DHT22;20128;45.582;5.298;2023-05-28T04:13:44;21.40;67.20
33827;DHT22;20128;45.582;5.298;2023-05-28T04:16:10;21.40;66.70
33827;DHT22;20128;45.582;5.298;2023-05-28T04:18:35;21.40;66.50
33827;DHT22;20128;45.582;5.298;2023-05-28T04:21:01;21.30;66.50
33827;DHT22;20128;45.582;5.298;2023-05-28T04:23:26;21.20;66.70
33827;DHT22;20128;45.582;5.298;2023-05-28T04:25:53;21.10;67.00
33827;DHT22;20128;45.582;5.298;2023-05-28T04:28:19;21.00;67.30
33827;DHT22;20128;45.582;5.298;2023-05-28T04:30:45;20.90;67.70
33827;DHT22;20128;45.582;5.298;2023-05-28T04:33:11;20.80;68.00
33827;DHT22;20128;45.582;5.298;2023-05-28T04:35:36;20.70;68.30
33827;DHT22;20128;45.582;5.298;2023-05-28T04:38:02;20.70;68.50
33827;DHT22;20128;45.582;5.298;2023-05-28T04:40:27;20.40;68.70
33827;DHT22;20128;45.582;5.298;2023-05-28T04:42:54;20.10;69.50
33827;DHT22;20128;45.582;5.298;2023-05-28T04:45:20;19.90;70.30
33827;DHT22;20128;45.582;5.298;2023-05-28T04:47:48;19.90;71.20
33827;DHT22;20128;45.582;5.298;2023-05-28T04:50:14;19.90;71.00
33827;DHT22;20128;45.582;5.298;2023-05-28T04:52:40;20.20;70.90
33827;DHT22;20128;45.582;5.298;2023-05-28T04:55:06;20.40;70.40
33827;DHT22;20128;45.582;5.298;2023-05-28T04:57:32;20.50;69.90
33827;DHT22;20128;45.582;5.298;2023-05-28T04:59:58;20.60;69.70
33827;DHT22;20128;45.582;5.298;2023-05-28T05:02:24;20.70;69.50
33827;DHT22;20128;45.582;5.298;2023-05-28T05:04:50;20.70;69.30
33827;DHT22;20128;45.582;5.298;2023-05-28T05:07:16;20.80;69.20
33827;DHT22;20128;45.582;5.298;2023-05-28T05:09:42;20.90;69.10
33827;DHT22;20128;45.582;5.298;2023-05-28T05:12:08;21.00;69.10
33827;DHT22;20128;45.582;5.298;2023-05-28T05:14:34;21.00;69.00
33827;DHT22;20128;45.582;5.298;2023-05-28T05:17:00;21.10;68.90
33827;DHT22;20128;45.582;5.298;2023-05-28T05:19:26;21.10;68.70
33827;DHT22;20128;45.582;5.298;2023-05-28T05:21:52;21.10;68.60
33827;DHT22;20128;45.582;5.298;2023-05-28T05:24:18;21.20;68.60
33827;DHT22;20128;45.582;5.298;2023-05-28T05:26:44;21.20;68.50
33827;DHT22;20128;45.582;5.298;2023-05-28T05:29:09;21.20;68.60
33827;DHT22;20128;45.582;5.298;2023-05-28T05:31:35;21.00;68.70
33827;DHT22;20128;45.582;5.298;2023-05-28T05:34:01;20.90;69.30
33827;DHT22;20128;45.582;5.298;2023-05-28T05:36:26;21.00;69.50
33827;DHT22;20128;45.582;5.298;2023-05-28T05:38:52;21.00;69.30
33827;DHT22;20128;45.582;5.298;2023-05-28T05:41:18;21.10;69.30
33827;DHT22;20128;45.582;5.298;2023-05-28T05:43:43;21.10;69.20
33827;DHT22;20128;45.582;5.298;2023-05-28T05:46:09;21.10;69.10
33827;DHT22;20128;45.582;5.298;2023-05-28T05:48:35;21.10;69.00
33827;DHT22;20128;45.582;5.298;2023-05-28T05:51:00;21.10;69.00
33827;DHT22;20128;45.582;5.298;2023-05-28T05:53:28;21.00;69.10
33827;DHT22;20128;45.582;5.298;2023-05-28T05:55:54;21.00;69.20
33827;DHT22;20128;45.582;5.298;2023-05-28T05:58:20;21.00;69.40
33827;DHT22;20128;45.582;5.298;2023-05-28T06:00:47;21.00;69.70
33827;DHT22;20128;45.582;5.298;2023-05-28T06:03:15;21.00;69.70
33827;DHT22;20128;45.582;5.298;2023-05-28T06:05:41;21.00;69.70
33827;DHT22;20128;45.582;5.298;2023-05-28T06:08:07;21.10;69.80
33827;DHT22;20128;45.582;5.298;2023-05-28T06:10:33;21.20;69.80
33827;DHT22;20128;45.582;5.298;2023-05-28T06:12:59;21.30;69.90
33827;DHT22;20128;45.582;5.298;2023-05-28T06:15:28;21.40;69.90
33827;DHT22;20128;45.582;5.298;2023-05-28T06:17:55;21.40;69.90
33827;DHT22;20128;45.582;5.298;2023-05-28T06:20:21;21.50;69.70
33827;DHT22;20128;45.582;5.298;2023-05-28T06:22:47;21.60;69.80
33827;DHT22;20128;45.582;5.298;2023-05-28T06:25:13;21.70;69.70
33827;DHT22;20128;45.582;5.298;2023-05-28T06:27:39;21.70;69.60
33827;DHT22;20128;45.582;5.298;2023-05-28T06:30:06;21.80;69.60
33827;DHT22;20128;45.582;5.298;2023-05-28T06:32:32;21.80;69.60
33827;DHT22;20128;45.582;5.298;2023-05-28T06:34:58;21.90;69.60
33827;DHT22;20128;45.582;5.298;2023-05-28T06:37:24;21.90;69.40
33827;DHT22;20128;45.582;5.298;2023-05-28T06:39:49;22.00;69.30
33827;DHT22;20128;45.582;5.298;2023-05-28T06:42:15;22.00;69.20
33827;DHT22;20128;45.582;5.298;2023-05-28T06:44:41;22.00;68.80
33827;DHT22;20128;45.582;5.298;2023-05-28T06:47:06;22.10;68.80
33827;DHT22;20128;45.582;5.298;2023-05-28T06:49:32;22.10;68.40
33827;DHT22;20128;45.582;5.298;2023-05-28T06:51:58;22.10;68.20
33827;DHT22;20128;45.582;5.298;2023-05-28T06:54:23;22.20;68.10
33827;DHT22;20128;45.582;5.298;2023-05-28T06:56:49;22.30;67.80
33827;DHT22;20128;45.582;5.298;2023-05-28T06:59:15;22.30;67.80
33827;DHT22;20128;45.582;5.298;2023-05-28T07:01:41;22.30;67.90
33827;DHT22;20128;45.582;5.298;2023-05-28T07:04:06;22.30;67.80
33827;DHT22;20128;45.582;5.298;2023-05-28T07:06:32;22.30;67.70
33827;DHT22;20128;45.582;5.298;2023-05-28T07:08:59;22.40;66.80
33827;DHT22;20128;45.582;5.298;2023-05-28T07:11:25;22.40;66.40
33827;DHT22;20128;45.582;5.298;2023-05-28T07:13:52;22.40;66.70
33827;DHT22;20128;45.582;5.298;2023-05-28T07:16:20;22.40;66.90
33827;DHT22;20128;45.582;5.298;2023-05-28T07:18:46;22.40;67.30
33827;DHT22;20128;45.582;5.298;2023-05-28T07:21:11;22.50;67.20
33827;DHT22;20128;45.582;5.298;2023-05-28T07:23:37;22.50;67.10
33827;DHT22;20128;45.582;5.298;2023-05-28T07:26:03;22.60;67.30
33827;DHT22;20128;45.582;5.298;2023-05-28T07:28:29;22.70;67.00
33827;DHT22;20128;45.582;5.298;2023-05-28T07:30:55;22.70;67.40
33827;DHT22;20128;45.582;5.298;2023-05-28T07:33:21;22.70;66.90
33827;DHT22;20128;45.582;5.298;2023-05-28T07:35:47;22.80;66.90
33827;DHT22;20128;45.582;5.298;2023-05-28T07:38:13;22.90;66.70
33827;DHT22;20128;45.582;5.298;2023-05-28T07:40:40;22.90;66.20
33827;DHT22;20128;45.582;5.298;2023-05-28T07:43:06;23.00;66.50
33827;DHT22;20128;45.582;5.298;2023-05-28T07:45:31;23.00;66.40
33827;DHT22;20128;45.582;5.298;2023-05-28T07:47:57;23.10;66.50
33827;DHT22;20128;45.582;5.298;2023-05-28T07:50:22;23.10;66.40
33827;DHT22;20128;45.582;5.298;2023-05-28T07:52:48;23.20;66.30
33827;DHT22;20128;45.582;5.298;2023-05-28T07:55:14;23.20;66.20
33827;DHT22;20128;45.582;5.298;2023-05-28T07:57:40;23.30;66.10
33827;DHT22;20128;45.582;5.298;2023-05-28T08:00:06;23.20;66.00
33827;DHT22;20128;45.582;5.298;2023-05-28T08:02:35;23.20;66.10
33827;DHT22;20128;45.582;5.298;2023-05-28T08:05:01;23.30;66.50
33827;DHT22;20128;45.582;5.298;2023-05-28T08:07:27;23.30;66.80
33827;DHT22;20128;45.582;5.298;2023-05-28T08:09:53;23.40;66.80
33827;DHT22;20128;45.582;5.298;2023-05-28T08:12:19;23.40;66.70
33827;DHT22;20128;45.582;5.298;2023-05-28T08:14:45;23.60;66.70
33827;DHT22;20128;45.582;5.298;2023-05-28T08:17:10;23.70;66.20
33827;DHT22;20128;45.582;5.298;2023-05-28T08:19:36;23.70;65.80
33827;DHT22;20128;45.582;5.298;2023-05-28T08:22:02;23.80;65.90
33827;DHT22;20128;45.582;5.298;2023-05-28T08:24:28;23.90;66.00
33827;DHT22;20128;45.582;5.298;2023-05-28T08:26:53;24.00;65.70
33827;DHT22;20128;45.582;5.298;2023-05-28T08:29:19;24.10;65.00
33827;DHT22;20128;45.582;5.298;2023-05-28T08:31:46;24.10;64.50
33827;DHT22;20128;45.582;5.298;2023-05-28T08:34:11;24.20;64.30
33827;DHT22;20128;45.582;5.298;2023-05-28T08:36:37;24.20;64.40
33827;DHT22;20128;45.582;5.298;2023-05-28T08:39:03;24.20;64.00
33827;DHT22;20128;45.582;5.298;2023-05-28T08:41:29;24.30;64.30
33827;DHT22;20128;45.582;5.298;2023-05-28T08:43:55;24.40;64.30
33827;DHT22;20128;45.582;5.298;2023-05-28T08:46:21;24.50;64.20
33827;DHT22;20128;45.582;5.298;2023-05-28T08:48:48;24.60;64.10
33827;DHT22;20128;45.582;5.298;2023-05-28T08:51:16;24.70;64.10
33827;DHT22;20128;45.582;5.298;2023-05-28T08:53:47;24.80;63.50
33827;DHT22;20128;45.582;5.298;2023-05-28T08:56:13;24.90;63.00
33827;DHT22;20128;45.582;5.298;2023-05-28T08:58:38;25.00;62.10
33827;DHT22;20128;45.582;5.298;2023-05-28T09:01:05;25.10;62.40
33827;DHT22;20128;45.582;5.298;2023-05-28T09:03:34;25.20;61.80
33827;DHT22;20128;45.582;5.298;2023-05-28T09:06:01;25.40;61.80
33827;DHT22;20128;45.582;5.298;2023-05-28T09:08:27;25.40;61.30
33827;DHT22;20128;45.582;5.298;2023-05-28T09:10:56;25.50;61.10
33827;DHT22;20128;45.582;5.298;2023-05-28T09:13:22;25.60;60.80
33827;DHT22;20128;45.582;5.298;2023-05-28T09:15:51;25.70;61.30
33827;DHT22;20128;45.582;5.298;2023-05-28T09:18:21;25.80;60.70
33827;DHT22;20128;45.582;5.298;2023-05-28T09:20:50;25.90;60.60
33827;DHT22;20128;45.582;5.298;2023-05-28T09:23:18;26.00;59.70
33827;DHT22;20128;45.582;5.298;2023-05-28T09:25:45;26.10;60.10
33827;DHT22;20128;45.582;5.298;2023-05-28T09:28:12;26.10;59.30
33827;DHT22;20128;45.582;5.298;2023-05-28T09:30:39;26.20;59.30
33827;DHT22;20128;45.582;5.298;2023-05-28T09:33:06;26.30;59.30
33827;DHT22;20128;45.582;5.298;2023-05-28T09:35:33;26.50;59.30
33827;DHT22;20128;45.582;5.298;2023-05-28T09:40:26;26.70;58.50
33827;DHT22;20128;45.582;5.298;2023-05-28T09:42:52;26.70;57.50
33827;DHT22;20128;45.582;5.298;2023-05-28T09:45:25;26.80;57.70
33827;DHT22;20128;45.582;5.298;2023-05-28T09:47:51;26.90;57.40
33827;DHT22;20128;45.582;5.298;2023-05-28T09:50:17;26.90;56.90
33827;DHT22;20128;45.582;5.298;2023-05-28T09:52:44;27.00;56.70
33827;DHT22;20128;45.582;5.298;2023-05-28T09:55:15;27.00;56.70
33827;DHT22;20128;45.582;5.298;2023-05-28T09:58:02;27.10;56.70
33827;DHT22;20128;45.582;5.298;2023-05-28T10:00:52;27.20;56.40
33827;DHT22;20128;45.582;5.298;2023-05-28T10:03:25;27.30;56.50
33827;DHT22;20128;45.582;5.298;2023-05-28T10:05:59;27.30;56.30
33827;DHT22;20128;45.582;5.298;2023-05-28T10:08:25;27.40;56.10
33827;DHT22;20128;45.582;5.298;2023-05-28T10:10:53;27.50;56.00
33827;DHT22;20128;45.582;5.298;2023-05-28T10:13:19;27.60;55.80
33827;DHT22;20128;45.582;5.298;2023-05-28T10:15:45;27.70;55.90
33827;DHT22;20128;45.582;5.298;2023-05-28T10:18:12;27.70;55.30
33827;DHT22;20128;45.582;5.298;2023-05-28T10:20:41;27.80;55.10
33827;DHT22;20128;45.582;5.298;2023-05-28T10:23:10;27.90;54.70
33827;DHT22;20128;45.582;5.298;2023-05-28T10:25:36;27.90;54.50
33827;DHT22;20128;45.582;5.298;2023-05-28T10:28:02;28.00;55.10
33827;DHT22;20128;45.582;5.298;2023-05-28T10:30:36;28.10;55.00
33827;DHT22;20128;45.582;5.298;2023-05-28T10:33:14;28.10;53.90
33827;DHT22;20128;45.582;5.298;2023-05-28T10:35:55;28.20;54.10
33827;DHT22;20128;45.582;5.298;2023-05-28T10:38:21;28.20;53.90
33827;DHT22;20128;45.582;5.298;2023-05-28T10:40:47;28.30;54.40
33827;DHT22;20128;45.582;5.298;2023-05-28T10:43:39;28.30;53.40
33827;DHT22;20128;45.582;5.298;2023-05-28T10:49:25;28.30;53.70
33827;DHT22;20128;45.582;5.298;2023-05-28T10:51:55;28.40;53.00
33827;DHT22;20128;45.582;5.298;2023-05-28T10:57:08;28.50;53.80
33827;DHT22;20128;45.582;5.298;2023-05-28T10:59:38;28.60;53.90
33827;DHT22;20128;45.582;5.298;2023-05-28T11:02:06;28.80;53.80
33827;DHT22;20128;45.582;5.298;2023-05-28T11:04:34;28.80;52.90
33827;DHT22;20128;45.582;5.298;2023-05-28T11:06:59;28.90;52.80
33827;DHT22;20128;45.582;5.298;2023-05-28T11:09:25;29.00;52.90
33827;DHT22;20128;45.582;5.298;2023-05-28T11:11:51;29.10;52.60
33827;DHT22;20128;45.582;5.298;2023-05-28T11:14:16;29.20;52.00
33827;DHT22;20128;45.582;5.298;2023-05-28T11:16:42;29.30;52.10
33827;DHT22;20128;45.582;5.298;2023-05-28T11:19:08;29.30;51.60
33827;DHT22;20128;45.582;5.298;2023-05-28T11:21:49;29.50;51.70
33827;DHT22;20128;45.582;5.298;2023-05-28T11:24:15;29.50;51.40
33827;DHT22;20128;45.582;5.298;2023-05-28T11:26:41;29.60;51.60
33827;DHT22;20128;45.582;5.298;2023-05-28T11:29:06;29.70;51.10
33827;DHT22;20128;45.582;5.298;2023-05-28T11:31:50;29.70;50.50
33827;DHT22;20128;45.582;5.298;2023-05-28T11:34:19;29.60;50.60
33827;DHT22;20128;45.582;5.298;2023-05-28T11:36:46;29.60;50.50
33827;DHT22;20128;45.582;5.298;2023-05-28T11:39:12;29.60;50.40
33827;DHT22;20128;45.582;5.298;2023-05-28T11:41:38;29.70;51.00
33827;DHT22;20128;45.582;5.298;2023-05-28T11:44:18;29.70;50.50
33827;DHT22;20128;45.582;5.298;2023-05-28T11:46:45;29.80;50.50
33827;DHT22;20128;45.582;5.298;2023-05-28T11:49:10;29.90;50.00
33827;DHT22;20128;45.582;5.298;2023-05-28T11:51:36;29.90;49.70
33827;DHT22;20128;45.582;5.298;2023-05-28T11:54:02;29.90;48.30
33827;DHT22;20128;45.582;5.298;2023-05-28T11:56:28;29.90;49.20
33827;DHT22;20128;45.582;5.298;2023-05-28T11:58:53;29.90;49.20
33827;DHT22;20128;45.582;5.298;2023-05-28T12:01:20;30.00;49.90
33827;DHT22;20128;45.582;5.298;2023-05-28T12:03:45;30.20;49.90
33827;DHT22;20128;45.582;5.298;2023-05-28T12:06:14;30.50;52.60
33827;DHT22;20128;45.582;5.298;2023-05-28T12:08:40;30.90;52.60
33827;DHT22;20128;45.582;5.298;2023-05-28T12:11:08;31.10;53.80
33827;DHT22;20128;45.582;5.298;2023-05-28T12:13:35;31.30;53.10
33827;DHT22;20128;45.582;5.298;2023-05-28T12:16:09;31.40;52.10
33827;DHT22;20128;45.582;5.298;2023-05-28T12:18:42;31.60;51.30
33827;DHT22;20128;45.582;5.298;2023-05-28T12:21:14;31.90;50.70
33827;DHT22;20128;45.582;5.298;2023-05-28T12:23:47;32.20;46.30
33827;DHT22;20128;45.582;5.298;2023-05-28T12:26:14;32.40;45.00
33827;DHT22;20128;45.582;5.298;2023-05-28T12:28:43;32.50;44.90
33827;DHT22;20128;45.582;5.298;2023-05-28T12:31:09;32.70;43.70
33827;DHT22;20128;45.582;5.298;2023-05-28T12:33:35;32.90;42.50
33827;DHT22;20128;45.582;5.298;2023-05-28T12:36:01;32.80;42.00
33827;DHT22;20128;45.582;5.298;2023-05-28T12:38:27;32.90;45.20
33827;DHT22;20128;45.582;5.298;2023-05-28T12:40:53;32.90;45.70
33827;DHT22;20128;45.582;5.298;2023-05-28T12:43:19;32.90;45.40
33827;DHT22;20128;45.582;5.298;2023-05-28T12:45:46;32.80;43.90
33827;DHT22;20128;45.582;5.298;2023-05-28T12:48:12;32.60;43.80
33827;DHT22;20128;45.582;5.298;2023-05-28T12:50:37;32.30;44.80
33827;DHT22;20128;45.582;5.298;2023-05-28T12:53:03;32.10;45.40
33827;DHT22;20128;45.582;5.298;2023-05-28T12:55:30;32.00;44.80
33827;DHT22;20128;45.582;5.298;2023-05-28T12:57:56;31.90;44.90
33827;DHT22;20128;45.582;5.298;2023-05-28T13:00:22;31.80;44.30
33827;DHT22;20128;45.582;5.298;2023-05-28T13:02:50;31.60;45.10
33827;DHT22;20128;45.582;5.298;2023-05-28T13:05:15;31.60;45.70
33827;DHT22;20128;45.582;5.298;2023-05-28T13:07:42;31.50;45.90
33827;DHT22;20128;45.582;5.298;2023-05-28T13:10:10;31.40;45.90
33827;DHT22;20128;45.582;5.298;2023-05-28T13:12:36;31.40;45.80
33827;DHT22;20128;45.582;5.298;2023-05-28T13:15:04;31.30;45.90
33827;DHT22;20128;45.582;5.298;2023-05-28T13:17:30;31.30;45.20
33827;DHT22;20128;45.582;5.298;2023-05-28T13:19:55;31.30;45.40
33827;DHT22;20128;45.582;5.298;2023-05-28T13:22:21;31.30;45.80
33827;DHT22;20128;45.582;5.298;2023-05-28T13:24:47;31.30;45.40
33827;DHT22;20128;45.582;5.298;2023-05-28T13:27:12;31.10;45.60
33827;DHT22;20128;45.582;5.298;2023-05-28T13:29:38;31.00;45.50
33827;DHT22;20128;45.582;5.298;2023-05-28T13:32:04;31.10;45.00
33827;DHT22;20128;45.582;5.298;2023-05-28T13:34:29;31.10;44.50
33827;DHT22;20128;45.582;5.298;2023-05-28T13:36:55;31.10;44.20
33827;DHT22;20128;45.582;5.298;2023-05-28T13:39:20;31.10;44.50
33827;DHT22;20128;45.582;5.298;2023-05-28T13:41:48;31.10;44.90
33827;DHT22;20128;45.582;5.298;2023-05-28T13:44:14;31.20;44.60
33827;DHT22;20128;45.582;5.298;2023-05-28T13:46:40;31.20;43.10
33827;DHT22;20128;45.582;5.298;2023-05-28T13:49:06;31.30;42.30
33827;DHT22;20128;45.582;5.298;2023-05-28T13:51:31;31.20;42.60
33827;DHT22;20128;45.582;5.298;2023-05-28T13:53:57;31.30;42.30
33827;DHT22;20128;45.582;5.298;2023-05-28T13:56:23;31.30;42.40
33827;DHT22;20128;45.582;5.298;2023-05-28T13:58:48;31.40;42.30
33827;DHT22;20128;45.582;5.298;2023-05-28T14:01:14;31.40;41.80
33827;DHT22;20128;45.582;5.298;2023-05-28T14:03:40;31.50;41.80
33827;DHT22;20128;45.582;5.298;2023-05-28T14:06:10;31.40;41.60
33827;DHT22;20128;45.582;5.298;2023-05-28T14:08:36;31.40;41.50
33827;DHT22;20128;45.582;5.298;2023-05-28T14:11:03;31.40;41.80
33827;DHT22;20128;45.582;5.298;2023-05-28T14:13:29;31.50;41.80
33827;DHT22;20128;45.582;5.298;2023-05-28T14:15:57;31.60;41.60
33827;DHT22;20128;45.582;5.298;2023-05-28T14:18:23;31.60;41.40
33827;DHT22;20128;45.582;5.298;2023-05-28T14:20:49;31.60;40.90
33827;DHT22;20128;45.582;5.298;2023-05-28T14:23:14;31.70;41.30
33827;DHT22;20128;45.582;5.298;2023-05-28T14:25:40;31.80;39.60
33827;DHT22;20128;45.582;5.298;2023-05-28T14:28:06;31.70;40.20
33827;DHT22;20128;45.582;5.298;2023-05-28T14:30:31;31.70;40.10
33827;DHT22;20128;45.582;5.298;2023-05-28T14:32:57;31.80;40.40
33827;DHT22;20128;45.582;5.298;2023-05-28T14:35:23;31.90;39.60
33827;DHT22;20128;45.582;5.298;2023-05-28T14:37:48;31.90;39.60
33827;DHT22;20128;45.582;5.298;2023-05-28T14:40:19;31.90;39.60
33827;DHT22;20128;45.582;5.298;2023-05-28T14:42:44;31.90;39.80
33827;DHT22;20128;45.582;5.298;2023-05-28T14:45:11;32.00;39.80
33827;DHT22;20128;45.582;5.298;2023-05-28T14:47:37;32.00;39.60
33827;DHT22;20128;45.582;5.298;2023-05-28T14:50:03;32.00;39.20
33827;DHT22;20128;45.582;5.298;2023-05-28T14:52:30;32.00;38.80
33827;DHT22;20128;45.582;5.298;2023-05-28T14:54:57;32.00;39.00
33827;DHT22;20128;45.582;5.298;2023-05-28T14:57:25;32.00;37.10
33827;DHT22;20128;45.582;5.298;2023-05-28T15:00:00;32.10;37.30
33827;DHT22;20128;45.582;5.298;2023-05-28T15:02:27;32.10;37.60
33827;DHT22;20128;45.582;5.298;2023-05-28T15:04:52;32.10;38.10
33827;DHT22;20128;45.582;5.298;2023-05-28T15:07:18;32.10;38.30
33827;DHT22;20128;45.582;5.298;2023-05-28T15:09:44;32.10;38.80
33827;DHT22;20128;45.582;5.298;2023-05-28T15:12:09;32.00;39.20
33827;DHT22;20128;45.582;5.298;2023-05-28T15:14:36;31.90;39.40
33827;DHT22;20128;45.582;5.298;2023-05-28T15:17:02;31.80;39.50
33827;DHT22;20128;45.582;5.298;2023-05-28T15:19:28;31.80;39.60
33827;DHT22;20128;45.582;5.298;2023-05-28T15:21:54;31.70;40.00
33827;DHT22;20128;45.582;5.298;2023-05-28T15:24:20;31.60;39.80
33827;DHT22;20128;45.582;5.298;2023-05-28T15:26:46;31.50;40.00
33827;DHT22;20128;45.582;5.298;2023-05-28T15:29:13;31.40;40.10
33827;DHT22;20128;45.582;5.298;2023-05-28T15:31:41;31.30;40.60
33827;DHT22;20128;45.582;5.298;2023-05-28T15:34:07;31.30;41.10
33827;DHT22;20128;45.582;5.298;2023-05-28T15:36:33;31.20;41.40